createdAt,value
2018-04-22T00:01:09.969Z,90.30
2018-04-22T00:03:37.554Z,90.00
2018-04-22T00:06:05.068Z,90.30
2018-04-22T00:08:33.342Z,90.90
2018-04-22T00:11:01.654Z,90.60
2018-04-22T00:13:29.173Z,90.50
2018-04-22T00:15:57.454Z,90.40
2018-04-22T00:18:25.777Z,91.10
2018-04-22T00:20:53.289Z,91.10
2018-04-22T00:23:20.820Z,90.80
2018-04-22T00:25:48.364Z,90.80
2018-04-22T00:28:15.881Z,90.60
2018-04-22T00:30:44.150Z,90.70
2018-04-22T00:33:12.547Z,90.70
2018-04-22T00:35:40.099Z,90.70
2018-04-22T00:38:08.374Z,90.50
2018-04-22T00:40:36.713Z,90.90
2018-04-22T00:43:04.243Z,90.90
2018-04-22T00:45:31.755Z,91.50
2018-04-22T00:47:59.329Z,90.70
2018-04-22T00:50:26.847Z,90.90
2018-04-22T00:52:54.422Z,91.00
2018-04-22T00:55:21.914Z,91.40
2018-04-22T00:57:49.481Z,91.40
2018-04-22T01:00:17.762Z,90.90
2018-04-22T01:02:45.306Z,90.90
2018-04-22T01:05:12.842Z,91.10
2018-04-22T01:07:40.348Z,91.30
2018-04-22T01:10:07.940Z,92.00
2018-04-22T01:12:35.450Z,91.00
2018-04-22T01:15:02.976Z,91.20
2018-04-22T01:17:30.532Z,91.10
2018-04-22T01:19:58.038Z,91.50
2018-04-22T01:22:26.349Z,92.00
2018-04-22T01:24:53.880Z,91.90
2018-04-22T01:27:22.174Z,91.30
2018-04-22T01:29:49.689Z,91.40
2018-04-22T01:32:17.267Z,91.30
2018-04-22T01:34:44.801Z,91.30
2018-04-22T01:37:12.330Z,91.40
2018-04-22T01:39:39.850Z,91.60
2018-04-22T01:42:07.373Z,91.60
2018-04-22T01:44:35.504Z,91.80
2018-04-22T01:47:03.830Z,91.80
2018-04-22T01:49:31.346Z,92.10
2018-04-22T01:51:59.626Z,92.00
2018-04-22T01:54:27.909Z,91.70
2018-04-22T01:56:55.418Z,91.70
2018-04-22T01:59:22.926Z,91.80
2018-04-22T02:01:50.461Z,92.10
2018-04-22T02:04:18.017Z,92.10
2018-04-22T02:06:45.545Z,91.80
2018-04-22T02:09:13.090Z,92.00
2018-04-22T02:11:40.595Z,92.00
2018-04-22T02:14:08.110Z,92.00
2018-04-22T02:16:35.648Z,92.00
2018-04-22T02:19:03.186Z,92.00
2018-04-22T02:21:30.749Z,92.30
2018-04-22T02:23:58.300Z,92.00
2018-04-22T02:26:26.599Z,92.40
2018-04-22T02:28:54.109Z,92.30
2018-04-22T02:31:21.649Z,92.10
2018-04-22T02:33:49.168Z,92.40
2018-04-22T02:36:17.462Z,92.30
2018-04-22T02:38:45.035Z,92.40
2018-04-22T02:41:12.567Z,92.60
2018-04-22T02:43:40.139Z,92.50
2018-04-22T02:46:07.633Z,92.60
2018-04-22T02:48:35.183Z,92.30
2018-04-22T02:51:02.712Z,92.10
2018-04-22T02:53:30.814Z,92.00
2018-04-22T02:55:58.330Z,92.20
2018-04-22T02:58:25.838Z,92.00
2018-04-22T03:00:54.467Z,92.50
2018-04-22T03:03:21.995Z,92.50
2018-04-22T03:05:49.564Z,92.30
2018-04-22T03:08:17.227Z,92.80
2018-04-22T03:10:44.737Z,92.70
2018-04-22T03:13:12.263Z,92.70
2018-04-22T03:15:39.802Z,92.80
2018-04-22T03:18:07.310Z,92.90
2018-04-22T03:20:35.586Z,93.20
2018-04-22T03:23:03.242Z,93.20
2018-04-22T03:25:31.853Z,93.10
2018-04-22T03:27:59.441Z,93.20
2018-04-22T03:30:27.862Z,93.30
2018-04-22T03:32:55.801Z,93.30
2018-04-22T03:35:23.408Z,93.70
2018-04-22T03:37:51.063Z,93.70
2018-04-22T03:40:18.661Z,93.60
2018-04-22T03:42:46.211Z,93.60
2018-04-22T03:45:13.746Z,93.80
2018-04-22T03:47:41.397Z,93.60
2018-04-22T03:50:08.909Z,93.80
2018-04-22T03:52:36.437Z,93.80
2018-04-22T03:55:03.986Z,94.30
2018-04-22T03:57:31.506Z,94.30
2018-04-22T03:59:59.025Z,94.00
2018-04-22T04:02:27.340Z,94.00
2018-04-22T04:04:54.878Z,94.00
2018-04-22T04:07:23.162Z,94.40
2018-04-22T04:09:51.019Z,94.40
2018-04-22T04:12:19.301Z,94.70
2018-04-22T04:14:47.524Z,94.70
2018-04-22T04:17:15.121Z,94.50
2018-04-22T04:19:54.369Z,94.70
2018-04-22T04:22:34.398Z,94.90
2018-04-22T04:28:15.654Z,95.00
2018-04-22T04:30:43.178Z,95.00
2018-04-22T04:33:11.466Z,95.20
2018-04-22T04:35:39.034Z,95.20
2018-04-22T04:38:07.307Z,95.20
2018-04-22T04:40:34.888Z,95.20
2018-04-22T04:43:02.421Z,95.10
2018-04-22T04:45:29.945Z,95.20
2018-04-22T04:47:57.585Z,95.20
2018-04-22T04:50:25.113Z,95.30
2018-04-22T04:52:52.642Z,95.40
2018-04-22T04:55:20.638Z,95.50
2018-04-22T04:57:48.925Z,95.40
2018-04-22T05:00:17.273Z,95.40
2018-04-22T05:02:44.774Z,95.40
2018-04-22T05:05:12.396Z,96.00
2018-04-22T05:07:39.970Z,95.40
2018-04-22T05:10:08.296Z,95.90
2018-04-22T05:12:35.814Z,95.40
2018-04-22T05:15:04.126Z,95.50
2018-04-22T05:17:31.662Z,95.50
2018-04-22T05:19:59.937Z,95.80
2018-04-22T05:22:27.496Z,95.70
2018-04-22T05:24:55.799Z,95.70
2018-04-22T05:27:23.317Z,95.70
2018-04-22T05:29:50.911Z,95.70
2018-04-22T05:32:18.432Z,95.70
2018-04-22T05:34:45.950Z,95.60
2018-04-22T05:37:13.497Z,95.70
2018-04-22T05:39:41.017Z,95.60
2018-04-22T05:42:08.618Z,95.80
2018-04-22T05:44:36.168Z,95.70
2018-04-22T05:47:04.448Z,95.50
2018-04-22T05:49:32.690Z,95.40
2018-04-22T05:52:00.237Z,95.40
2018-04-22T05:54:28.514Z,95.30
2018-04-22T05:56:56.049Z,95.30
2018-04-22T05:59:23.591Z,95.20
2018-04-22T06:01:51.111Z,95.20
2018-04-22T06:04:18.624Z,95.20
2018-04-22T06:06:46.210Z,95.00
2018-04-22T06:09:13.727Z,95.20
2018-04-22T06:11:41.312Z,95.40
2018-04-22T06:14:09.640Z,95.60
2018-04-22T06:16:37.203Z,95.60
2018-04-22T06:19:04.754Z,95.40
2018-04-22T06:21:34.143Z,95.30
2018-04-22T06:24:01.660Z,95.30
2018-04-22T06:26:29.938Z,95.50
2018-04-22T06:28:57.503Z,95.60
2018-04-22T06:31:25.037Z,95.30
2018-04-22T06:33:52.626Z,95.00
2018-04-22T06:36:20.179Z,95.00
2018-04-22T06:38:48.473Z,94.80
2018-04-22T06:41:16.015Z,94.70
2018-04-22T06:43:44.292Z,94.40
2018-04-22T06:46:11.810Z,94.40
2018-04-22T06:48:39.357Z,94.00
2018-04-22T06:51:06.882Z,93.40
2018-04-22T06:53:34.417Z,93.30
2018-04-22T06:56:01.965Z,92.90
2018-04-22T06:58:29.500Z,92.70
2018-04-22T07:00:57.020Z,92.80
2018-04-22T07:03:24.574Z,92.70
2018-04-22T07:05:52.109Z,92.40
2018-04-22T07:08:19.666Z,92.00
2018-04-22T07:10:47.227Z,92.00
2018-04-22T07:13:14.767Z,91.90
2018-04-22T07:15:43.396Z,91.30
2018-04-22T07:18:10.955Z,91.20
2018-04-22T07:20:39.242Z,90.40
2018-04-22T07:23:06.807Z,90.30
2018-04-22T07:25:35.165Z,90.60
2018-04-22T07:28:02.709Z,90.60
2018-04-22T07:30:30.219Z,89.90
2018-04-22T07:32:57.803Z,90.10
2018-04-22T07:35:25.328Z,90.10
2018-04-22T07:37:53.618Z,89.70
2018-04-22T07:40:21.149Z,89.60
2018-04-22T07:42:48.727Z,89.60
2018-04-22T07:45:16.245Z,89.40
2018-04-22T07:47:43.790Z,86.40
2018-04-22T07:50:11.338Z,86.10
2018-04-22T07:52:38.865Z,87.20
2018-04-22T07:55:06.437Z,86.00
2018-04-22T07:57:33.969Z,85.20
2018-04-22T08:00:01.496Z,85.20
2018-04-22T08:02:29.121Z,85.10
2018-04-22T08:04:56.669Z,84.60
2018-04-22T08:07:24.199Z,85.00
2018-04-22T08:09:51.763Z,85.10
2018-04-22T08:12:19.265Z,85.30
2018-04-22T08:14:46.790Z,83.70
2018-04-22T08:17:14.372Z,84.20
2018-04-22T08:19:42.704Z,84.10
2018-04-22T08:22:10.262Z,83.20
2018-04-22T08:24:37.825Z,84.10
2018-04-22T08:27:05.362Z,84.40
2018-04-22T08:29:33.511Z,82.20
2018-04-22T08:32:01.860Z,81.10
2018-04-22T08:34:29.523Z,81.20
2018-04-22T08:36:57.091Z,81.90
2018-04-22T08:39:24.627Z,82.00
2018-04-22T08:41:56.655Z,80.90
2018-04-22T08:44:25.198Z,80.50
2018-04-22T08:46:53.786Z,80.00
2018-04-22T08:49:22.348Z,79.90
2018-04-22T08:51:49.869Z,79.90
2018-04-22T08:54:18.103Z,78.70
2018-04-22T08:56:45.809Z,78.10
2018-04-22T08:59:13.354Z,77.10
2018-04-22T09:01:41.650Z,76.20
2018-04-22T09:04:09.196Z,76.20
2018-04-22T09:06:37.466Z,77.10
2018-04-22T09:09:05.723Z,77.20
2018-04-22T09:11:33.252Z,75.70
2018-04-22T09:14:00.817Z,76.70
2018-04-22T09:16:28.395Z,77.50
2018-04-22T09:18:55.986Z,78.50
2018-04-22T09:21:23.498Z,79.00
2018-04-22T09:23:51.029Z,80.10
2018-04-22T09:26:18.572Z,80.50
2018-04-22T09:28:46.091Z,80.50
2018-04-22T09:31:13.663Z,79.50
2018-04-22T09:33:41.187Z,80.60
2018-04-22T09:36:08.707Z,78.10
2018-04-22T09:38:36.243Z,78.80
2018-04-22T09:41:03.851Z,77.50
2018-04-22T09:43:31.390Z,77.70
2018-04-22T09:45:59.068Z,75.80
2018-04-22T09:48:26.599Z,76.40
2018-04-22T09:50:54.125Z,75.50
2018-04-22T09:53:21.840Z,74.90
2018-04-22T09:55:49.722Z,73.20
2018-04-22T09:58:17.286Z,75.20
2018-04-22T10:00:46.875Z,70.60
2018-04-22T10:03:15.195Z,71.30
2018-04-22T10:05:48.405Z,71.20
2018-04-22T10:08:15.953Z,70.50
2018-04-22T10:10:43.460Z,68.50
2018-04-22T10:13:10.986Z,66.40
2018-04-22T10:15:39.289Z,70.00
2018-04-22T10:18:06.799Z,70.10
2018-04-22T10:20:34.357Z,65.70
2018-04-22T10:23:01.907Z,64.00
2018-04-22T10:25:29.444Z,66.10
2018-04-22T10:27:57.080Z,67.00
2018-04-22T10:30:24.728Z,60.50
2018-04-22T10:32:52.242Z,61.10
2018-04-22T10:35:20.518Z,59.70
2018-04-22T10:37:48.091Z,59.70
2018-04-22T10:40:15.619Z,60.00
2018-04-22T10:42:43.763Z,57.50
2018-04-22T10:45:11.350Z,57.50
2018-04-22T10:47:38.872Z,58.90
2018-04-22T10:50:07.140Z,63.40
2018-04-22T10:52:34.690Z,60.90
2018-04-22T10:55:02.276Z,57.60
2018-04-22T10:57:29.811Z,58.30
2018-04-22T10:59:58.097Z,60.80
2018-04-22T11:02:25.659Z,60.50
2018-04-22T11:04:53.169Z,55.60
2018-04-22T11:07:20.747Z,55.70
2018-04-22T11:09:49.086Z,52.70
2018-04-22T11:12:16.649Z,52.60
2018-04-22T11:14:44.161Z,53.60
2018-04-22T11:17:12.486Z,56.40
2018-04-22T11:19:39.990Z,56.30
2018-04-22T11:22:08.310Z,56.10
2018-04-22T11:24:35.872Z,55.90
2018-04-22T11:27:04.138Z,57.10
2018-04-22T11:29:31.672Z,58.40
2018-04-22T11:32:00.017Z,59.70
2018-04-22T11:34:27.562Z,59.70
2018-04-22T11:36:55.872Z,61.10
2018-04-22T11:39:23.431Z,61.00
2018-04-22T11:41:50.974Z,62.10
2018-04-22T11:44:18.494Z,59.60
2018-04-22T11:46:46.013Z,59.30
2018-04-22T11:49:13.592Z,58.60
2018-04-22T11:51:41.146Z,60.00
2018-04-22T11:54:09.274Z,59.60
2018-04-22T11:56:36.834Z,59.20
2018-04-22T11:59:04.398Z,58.80
2018-04-22T12:01:31.963Z,59.20
2018-04-22T12:03:59.516Z,60.90
2018-04-22T12:06:27.045Z,60.00
2018-04-22T12:08:54.577Z,59.20
2018-04-22T12:11:22.101Z,59.20
2018-04-22T12:13:49.614Z,60.80
2018-04-22T12:16:17.974Z,60.90
2018-04-22T12:18:45.482Z,60.90
2018-04-22T12:21:13.010Z,62.50
2018-04-22T12:23:40.604Z,63.70
2018-04-22T12:26:08.132Z,61.60
2018-04-22T12:28:35.645Z,60.90
2018-04-22T12:31:03.179Z,61.60
2018-04-22T12:33:30.758Z,63.80
2018-04-22T12:35:58.274Z,64.50
2018-04-22T12:38:25.822Z,61.50
2018-04-22T12:40:53.355Z,61.20
2018-04-22T12:43:20.910Z,61.90
2018-04-22T12:45:48.509Z,63.30
2018-04-22T12:48:16.042Z,60.30
2018-04-22T12:50:43.617Z,58.90
2018-04-22T12:53:11.169Z,60.00
2018-04-22T12:55:38.697Z,61.10
2018-04-22T12:58:06.198Z,62.90
2018-04-22T13:00:33.722Z,63.70
2018-04-22T13:03:01.238Z,63.00
2018-04-22T13:05:28.749Z,61.10
2018-04-22T13:07:56.266Z,62.70
2018-04-22T13:10:24.554Z,59.70
2018-04-22T13:12:52.132Z,59.60
2018-04-22T13:15:19.691Z,60.60
2018-04-22T13:17:47.202Z,59.70
2018-04-22T13:20:14.783Z,60.80
2018-04-22T13:22:42.301Z,58.20
2018-04-22T13:25:09.827Z,57.20
2018-04-22T13:27:37.354Z,58.00
2018-04-22T13:30:04.896Z,56.70
2018-04-22T13:32:32.401Z,57.00
2018-04-22T13:35:00.716Z,56.40
2018-04-22T13:37:29.101Z,56.60
2018-04-22T13:39:56.622Z,56.60
2018-04-22T13:44:58.150Z,56.60
2018-04-22T13:47:25.694Z,56.10
2018-04-22T13:49:53.216Z,55.70
2018-04-22T13:52:20.769Z,55.20
2018-04-22T13:54:48.365Z,57.80
2018-04-22T13:57:15.863Z,56.90
2018-04-22T13:59:43.450Z,55.20
2018-04-22T14:02:11.827Z,55.80
2018-04-22T14:04:39.382Z,55.70
2018-04-22T14:07:07.708Z,58.60
2018-04-22T14:09:35.235Z,58.60
2018-04-22T14:12:03.547Z,57.10
2018-04-22T14:14:31.115Z,57.00
2018-04-22T14:16:58.664Z,55.00
2018-04-22T14:19:26.177Z,56.90
2018-04-22T14:21:53.744Z,57.60
2018-04-22T14:24:22.031Z,56.50
2018-04-22T14:26:49.760Z,56.50
2018-04-22T14:29:17.311Z,56.00
2018-04-22T14:31:45.289Z,55.80
2018-04-22T14:34:12.799Z,56.80
2018-04-22T14:36:40.365Z,57.50
2018-04-22T14:39:07.883Z,57.90
2018-04-22T14:41:35.402Z,57.60
2018-04-22T14:44:14.817Z,58.80
2018-04-22T14:46:43.095Z,59.20
2018-04-22T14:49:10.639Z,59.20
2018-04-22T14:51:38.997Z,62.20
2018-04-22T14:54:06.508Z,62.20
2018-04-22T14:56:34.016Z,59.10
2018-04-22T14:59:01.563Z,59.60
2018-04-22T15:01:29.093Z,60.30
2018-04-22T15:03:56.602Z,61.60
2018-04-22T15:06:24.315Z,62.30
2018-04-22T15:08:52.099Z,63.90
2018-04-22T15:11:19.618Z,64.70
2018-04-22T15:13:47.154Z,64.90
2018-04-22T15:16:14.667Z,70.00
2018-04-22T15:18:42.193Z,79.80
2018-04-22T15:21:10.535Z,87.50
2018-04-22T15:23:38.042Z,87.40
2018-04-22T15:26:06.323Z,82.60
2018-04-22T15:28:33.859Z,82.40
2018-04-22T15:31:01.391Z,81.90
2018-04-22T15:33:29.677Z,83.90
2018-04-22T15:35:57.814Z,83.80
2018-04-22T15:38:25.332Z,83.60
2018-04-22T15:40:52.857Z,81.30
2018-04-22T15:43:20.395Z,84.00
2018-04-22T15:45:47.901Z,80.60
2018-04-22T15:48:15.406Z,81.20
2018-04-22T15:50:42.940Z,81.00
2018-04-22T15:53:10.550Z,80.20
2018-04-22T15:55:38.138Z,78.70
2018-04-22T15:58:05.681Z,78.60
2018-04-22T16:00:33.220Z,78.20
2018-04-22T16:03:00.747Z,76.80
2018-04-22T16:05:29.046Z,75.50
2018-04-22T16:07:57.313Z,75.60
2018-04-22T16:10:24.900Z,75.50
2018-04-22T16:12:52.491Z,75.50
2018-04-22T16:15:20.827Z,76.10
2018-04-22T16:17:48.348Z,76.00
2018-04-22T16:20:15.866Z,76.20
2018-04-22T16:22:43.462Z,75.60
2018-04-22T16:25:10.962Z,74.80
2018-04-22T16:27:39.263Z,71.30
2018-04-22T16:30:06.823Z,71.20
2018-04-22T16:32:34.325Z,72.10
2018-04-22T16:35:01.846Z,72.70
2018-04-22T16:37:29.710Z,76.70
2018-04-22T16:39:57.231Z,76.80
2018-04-22T16:42:24.752Z,76.60
2018-04-22T16:44:52.296Z,76.80
2018-04-22T16:47:19.819Z,77.40
2018-04-22T16:49:48.108Z,76.10
2018-04-22T16:52:15.671Z,76.10
2018-04-22T16:54:44.762Z,78.10
2018-04-22T16:57:13.037Z,76.80
2018-04-22T16:59:40.574Z,76.80
2018-04-22T17:02:08.240Z,77.90
2018-04-22T17:04:35.762Z,78.80
2018-04-22T17:07:03.335Z,79.50
2018-04-22T17:09:30.853Z,78.60
2018-04-22T17:11:58.578Z,80.00
2018-04-22T17:14:26.233Z,79.50
2018-04-22T17:16:53.780Z,79.80
2018-04-22T17:19:22.009Z,79.50
2018-04-22T17:21:49.526Z,80.00
2018-04-22T17:24:17.186Z,79.00
2018-04-22T17:26:44.707Z,79.30
2018-04-22T17:29:12.252Z,79.90
2018-04-22T17:31:40.545Z,80.90
2018-04-22T17:34:08.103Z,80.90
2018-04-22T17:36:36.435Z,82.00
2018-04-22T17:39:03.974Z,81.90
2018-04-22T17:41:31.503Z,82.20
2018-04-22T17:43:59.032Z,81.40
2018-04-22T17:46:26.568Z,82.00
2018-04-22T17:48:54.091Z,83.00
2018-04-22T17:51:21.623Z,85.80
2018-04-22T17:53:49.909Z,89.70
2018-04-22T17:56:18.242Z,88.50
2018-04-22T17:58:45.755Z,88.50
2018-04-22T18:01:14.100Z,88.30
2018-04-22T18:03:41.661Z,88.30
2018-04-22T18:06:09.246Z,88.60
2018-04-22T18:08:36.788Z,88.00
2018-04-22T18:11:04.349Z,89.90
2018-04-22T18:13:31.910Z,88.80
2018-04-22T18:15:59.427Z,87.80
2018-04-22T18:18:26.958Z,89.40
2018-04-22T18:20:54.516Z,88.20
2018-04-22T18:23:22.072Z,88.70
2018-04-22T18:25:49.637Z,90.40
2018-04-22T18:28:17.974Z,90.50
2018-04-22T18:30:45.518Z,90.40
2018-04-22T18:33:13.082Z,90.20
2018-04-22T18:35:40.693Z,89.70
2018-04-22T18:38:08.214Z,90.50
2018-04-22T18:40:35.834Z,90.20
2018-04-22T18:43:03.358Z,91.00
2018-04-22T18:45:30.895Z,90.60
2018-04-22T18:47:58.443Z,90.80
2018-04-22T18:50:25.975Z,90.50
2018-04-22T18:52:53.536Z,90.80
2018-04-22T18:55:21.847Z,90.80
2018-04-22T18:57:49.415Z,90.90
2018-04-22T19:00:17.744Z,92.20
2018-04-22T19:02:46.056Z,92.90
2018-04-22T19:05:13.625Z,92.90
2018-04-22T19:07:41.170Z,92.10
2018-04-22T19:10:08.704Z,92.60
2018-04-22T19:12:36.990Z,92.70
2018-04-22T19:15:04.728Z,92.70
2018-04-22T19:17:32.246Z,92.70
2018-04-22T19:19:59.805Z,93.30
2018-04-22T19:22:27.388Z,93.50
2018-04-22T19:24:54.930Z,93.90
2018-04-22T19:27:22.461Z,93.80
2018-04-22T19:29:50.062Z,93.60
2018-04-22T19:32:17.594Z,93.60
2018-04-22T19:34:45.936Z,94.30
2018-04-22T19:37:13.424Z,94.30
2018-04-22T19:39:40.977Z,93.90
2018-04-22T19:42:09.284Z,93.90
2018-04-22T19:44:36.795Z,93.90
2018-04-22T19:47:04.325Z,94.40
2018-04-22T19:49:31.864Z,94.40
2018-04-22T19:51:59.391Z,94.30
2018-04-22T19:54:26.907Z,94.90
2018-04-22T19:56:54.437Z,95.00
2018-04-22T19:59:21.952Z,94.90
2018-04-22T20:01:49.505Z,95.00
2018-04-22T20:04:17.819Z,95.00
2018-04-22T20:06:46.151Z,95.60
2018-04-22T20:09:14.641Z,95.60
2018-04-22T20:11:42.195Z,95.80
2018-04-22T20:14:09.794Z,96.00
2018-04-22T20:16:38.251Z,95.30
2018-04-22T20:19:05.834Z,95.30
2018-04-22T20:21:34.190Z,96.00
2018-04-22T20:24:01.742Z,96.10
2018-04-22T20:26:29.254Z,96.10
2018-04-22T20:28:56.779Z,96.10
2018-04-22T20:31:24.349Z,96.20
2018-04-22T20:33:52.617Z,96.30
2018-04-22T20:36:20.140Z,96.00
2018-04-22T20:38:47.726Z,96.00
2018-04-22T20:41:15.241Z,96.30
2018-04-22T20:43:43.538Z,96.70
2018-04-22T20:46:11.733Z,97.00
2018-04-22T20:48:39.247Z,96.50
2018-04-22T20:51:06.769Z,96.80
2018-04-22T20:53:34.358Z,97.00
2018-04-22T20:56:02.642Z,96.90
2018-04-22T20:58:30.158Z,96.90
2018-04-22T21:00:57.684Z,96.70
2018-04-22T21:03:25.365Z,96.80
2018-04-22T21:05:52.842Z,96.80
2018-04-22T21:08:20.400Z,97.20
2018-04-22T21:10:47.905Z,97.00
2018-04-22T21:13:15.458Z,97.30
2018-04-22T21:15:43.038Z,97.20
2018-04-22T21:18:11.325Z,97.70
2018-04-22T21:20:38.843Z,97.70
2018-04-22T21:23:06.374Z,97.40
2018-04-22T21:25:33.901Z,97.40
2018-04-22T21:28:02.216Z,98.70
2018-04-22T21:30:29.763Z,98.70
2018-04-22T21:32:57.336Z,98.80
2018-04-22T21:35:24.848Z,98.90
2018-04-22T21:37:52.385Z,99.60
2018-04-22T21:40:19.899Z,99.50
2018-04-22T21:42:47.486Z,99.90
2018-04-22T21:45:15.054Z,99.90
2018-04-22T21:47:42.558Z,99.80
2018-04-22T21:50:10.066Z,99.90
2018-04-22T21:52:37.612Z,99.90
2018-04-22T21:55:05.142Z,99.90
2018-04-22T21:57:32.670Z,99.90
2018-04-22T22:00:00.219Z,99.90
2018-04-22T22:02:27.773Z,99.90
2018-04-22T22:04:55.303Z,99.90
2018-04-22T22:07:22.813Z,99.90
2018-04-22T22:09:50.354Z,99.80
2018-04-22T22:12:17.889Z,99.90
2018-04-22T22:14:45.414Z,99.90
2018-04-22T22:17:13.722Z,99.90
2018-04-22T22:19:41.231Z,99.90
2018-04-22T22:22:08.806Z,99.90
2018-04-22T22:24:36.333Z,99.90
2018-04-22T22:27:03.837Z,99.90
2018-04-22T22:29:31.347Z,99.90
2018-04-22T22:31:58.911Z,99.90
2018-04-22T22:34:26.444Z,99.90
2018-04-22T22:36:53.999Z,99.90
2018-04-22T22:39:21.539Z,99.90
2018-04-22T22:41:49.822Z,99.90
2018-04-22T22:44:17.342Z,99.90
2018-04-22T22:46:44.874Z,99.90
2018-04-22T22:49:13.175Z,99.90
2018-04-22T22:51:40.682Z,99.90
2018-04-22T22:54:08.271Z,99.60
2018-04-22T22:56:35.828Z,99.10
2018-04-22T22:59:03.362Z,99.50
2018-04-22T23:01:31.678Z,99.90
2018-04-22T23:03:59.278Z,99.90
2018-04-22T23:06:26.783Z,99.90
2018-04-22T23:08:54.326Z,99.90
2018-04-22T23:11:21.852Z,99.90
2018-04-22T23:13:49.370Z,99.90
2018-04-22T23:16:16.920Z,99.90
2018-04-22T23:18:45.724Z,99.90
2018-04-22T23:21:13.238Z,99.90
2018-04-22T23:23:40.770Z,99.90
2018-04-22T23:26:08.271Z,99.90
2018-04-22T23:28:35.775Z,99.90
2018-04-22T23:31:03.313Z,99.90
2018-04-22T23:33:30.813Z,99.90
2018-04-22T23:35:58.353Z,99.90
2018-04-22T23:38:25.861Z,99.90
2018-04-22T23:40:53.375Z,99.90
2018-04-22T23:43:20.902Z,99.90
2018-04-22T23:45:49.175Z,99.90
2018-04-22T23:48:16.722Z,99.90
2018-04-22T23:50:44.270Z,99.90
2018-04-22T23:53:11.810Z,99.90
2018-04-22T23:55:39.322Z,99.90
2018-04-22T23:58:06.855Z,99.90
